Airfield :
LOGIN :

Register | Disclaimer

   EN    FR    IT 

 










Legend :    VFR   Marginal VFR   IFR   Intensive IFR   Very Intensive IFR
Visi :
Ceiling :
>= 8 km
>= 3000ft
5 to 8 km
1000 to 3000 ft
1500m to 5 km
500 to 1000 ft
800 to 1500m
200 to 500 ft
< 800m
< 200 ft
Symbols :   Thunderstorms  Fog  Heavy snow  Heavy precipitations  Wind > 20 kt
SIGMETs :     Misc.  Thunderstorms  Icing  Turbulence  Mountain Waves  Volcanic Ashes






- Airport Elevation : 33 ft
- IATA code : MHZ


EGUN - RAF Mildenhall

CURRENT METAR :
  • 280421Z AUTO 10008KT 9999 -RA OVC014 07/07 A2955 RMK AO2 CIG 014V019 CIG 005 RWY11 SLP010 FZRANO $

EXPIRED METARs :
  • 280416Z AUTO 10007KT 9999 -RA OVC016 07/07 A2955 RMK AO2 CIG 016V021 CIG 005 RWY11 SLP010 FZRANO $
  • 280411Z AUTO 10009KT 9999 -RA OVC019 07/07 A2955 RMK AO2 CIG 005 RWY11 SLP010 FZRANO $
  • 280356Z AUTO 12011KT 9999 -RA OVC022 07/07 A2956 RMK AO2 CIG 005 RWY11 SLP013 P0014 T00650065 FZRANO $
  • 280346Z AUTO 12009KT 9999 -RA OVC023 06/06 A2957 RMK AO2 CIG 005 RWY11 SLP017 FZRANO $
  • 280331Z AUTO 11009KT 9000 -RA BR OVC021 06/06 A2958 RMK AO2 CIG 005 RWY11 PRESFR SLP020 FZRANO $
  • 270306Z AUTO 25006KT 9999 BKN008 OVC011 06/06 A2977 RMK AO2 CIG 008V011 SLP085 FZRANO $

TAF TAF EGUN
Valid from the 28 at 04:00 until the 29 at 10:00 UTC


280400Z 2804/2910 13010G20KT 5000 -RA SCT005 OVC020 650604 QNH2943INS
TEMPO 2804/2809 OVC005
BECMG 2809/2810 27010G20KT 9999 NSW SCT005 OVC020 QNH2938INS
TEMPO 2811/2816 27015G30KT
TEMPO 2822/2901 18010G20KT 5000 -SHRA BKN005
BECMG 2901/2902 27010G20KT 9999 OVC008 QNH2938INS
BECMG 2904/2905 27010G15KT 9999 SCT010 OVC020 QNH2935INS TX11/2812Z TN06/2804Z



MET'MAP, your aeronautical weather chart ! - Copyright ORBIFLY December 2007 - Disclaimer

ORBIFLY MET'MAP TEAM :

Programming & Development : Alexandra Zaïnal
Concept & original design : Baudouin d'Aumeries
Assistance for programming : Marc-Olivier Méhu
Technical & hardware support : Manuel Goepfert

Contact : metmap@orbifly.com




SOURCES & CREDITS :

   NOAA